Portada
METAR-TAF:

METAR-TAF

Aeroports :

Dakar, Senegal

latitud: 14-44N, longitud: 017-30W, altitud: 27 m

Observació

L'informe es va fer fa 46 minuts, a les 02:00 UTC
Vent 4 kt del Sud-Oest
Temperatura 27°C
Humitat 84%
Pressió 1013 hPa
Visibilitat: 8000 m
Escasses núvols a una alçada de 1300 ft

METAR: GOOY 200200Z 22004KT 8000 FEW013 27/24 Q1013 NOSIG

Hora: 02:46 (02:46 UTC)

Pronòstic

L'informe es va fer fa 3 hores i 16 minuts, a les 23:30 UTC
Pronòstic vàlid del 20 a les 00 UTC al 21 a les 06 UTC
Vent 8 kt del Oest
Visibilitat 10 km o més
Núvols disperses a una alçada de 1300 ft

TAF: GOOY 192330Z 2000/2106 28008KT 9999 SCT013

Observacions i pronòstics meteorològics de més de 4000 aeroports (METAR i TAF).

Les estacions disponibles són els punts grocs i vermells al mapa.

Posi el ratolí al punt desitjat per veure el nom de l'estació.

Feu clic per veure les observacions i els pronòstics meteorològics.

Per canviar el mapa: feu clic els botons verds amb una creu de color negre per apropar; al botó verd amb un guió per allunyar la imatge; o en les fletxes verdes per a mapes adjacents.


METAR-TAF: